createdAt,value
2018-11-27T00:01:48.092Z,72.46
2018-11-27T00:04:17.097Z,70.81
2018-11-27T00:06:46.092Z,82.48
2018-11-27T00:09:15.285Z,73.58
2018-11-27T00:11:44.478Z,72.13
2018-11-27T00:14:13.481Z,70.80
2018-11-27T00:16:42.475Z,69.78
2018-11-27T00:19:11.533Z,73.69
2018-11-27T00:21:40.570Z,73.59
2018-11-27T00:24:09.791Z,75.84
2018-11-27T00:26:39.234Z,76.14
2018-11-27T00:29:08.223Z,71.21
2018-11-27T00:31:37.216Z,69.42
2018-11-27T00:34:06.798Z,69.96
2018-11-27T00:36:35.856Z,71.03
2018-11-27T00:39:07.248Z,71.23
2018-11-27T00:41:36.232Z,69.92
2018-11-27T00:44:05.307Z,68.74
2018-11-27T00:46:34.309Z,70.58
2018-11-27T00:49:03.517Z,72.47
2018-11-27T00:51:32.810Z,71.69
2018-11-27T00:54:01.801Z,70.55
2018-11-27T00:56:30.876Z,70.71
2018-11-27T00:59:00.926Z,73.34
2018-11-27T01:01:29.971Z,73.23
2018-11-27T01:03:59.317Z,74.27
2018-11-27T01:06:28.299Z,74.05
2018-11-27T01:08:57.678Z,73.74
2018-11-27T01:11:26.750Z,74.89
2018-11-27T01:13:55.753Z,73.43
2018-11-27T01:16:24.785Z,74.85
2018-11-27T01:18:53.801Z,70.99
2018-11-27T01:21:23.086Z,70.35
2018-11-27T01:23:52.081Z,69.37
2018-11-27T01:26:21.112Z,71.64
2018-11-27T01:28:50.452Z,74.52
2018-11-27T01:31:19.451Z,72.68
2018-11-27T01:33:48.476Z,75.14
2018-11-27T01:36:17.521Z,77.34
2018-11-27T01:38:46.515Z,76.87
2018-11-27T01:41:15.773Z,76.32
2018-11-27T01:43:45.021Z,74.74
2018-11-27T01:46:14.112Z,76.58
2018-11-27T01:48:43.089Z,75.29
2018-11-27T01:51:12.071Z,75.71
2018-11-27T01:53:41.149Z,74.87
2018-11-27T01:56:10.185Z,74.38
2018-11-27T01:58:39.371Z,71.14
2018-11-27T02:01:08.658Z,71.48
2018-11-27T02:03:37.640Z,73.21
2018-11-27T02:06:07.225Z,70.12
2018-11-27T02:08:36.529Z,69.12
2018-11-27T02:11:05.517Z,69.19
2018-11-27T02:13:34.581Z,69.44
2018-11-27T02:16:04.227Z,69.38
2018-11-27T02:18:33.450Z,73.04
2018-11-27T02:21:02.428Z,74.35
2018-11-27T02:23:31.447Z,72.41
2018-11-27T02:26:00.643Z,73.57
2018-11-27T02:28:29.857Z,74.14
2018-11-27T02:30:58.830Z,73.23
2018-11-27T02:33:27.873Z,71.31
2018-11-27T02:35:56.866Z,69.01
2018-11-27T02:38:25.910Z,70.15
2018-11-27T02:40:54.905Z,70.20
2018-11-27T02:43:24.226Z,69.33
2018-11-27T02:45:53.637Z,71.59
2018-11-27T02:48:22.912Z,71.22
2018-11-27T02:50:51.906Z,69.05
2018-11-27T02:53:20.942Z,68.31
2018-11-27T02:55:49.929Z,70.35
2018-11-27T02:58:19.186Z,70.02
2018-11-27T03:00:48.186Z,69.01
2018-11-27T03:03:17.450Z,74.42
2018-11-27T03:05:46.558Z,71.67
2018-11-27T03:08:15.531Z,68.44
2018-11-27T03:10:44.721Z,73.46
2018-11-27T03:13:13.719Z,70.50
2018-11-27T03:15:42.704Z,68.71
2018-11-27T03:18:11.904Z,70.56
2018-11-27T03:20:40.860Z,70.56
2018-11-27T03:23:09.858Z,70.05
2018-11-27T03:25:38.852Z,70.08
2018-11-27T03:28:07.841Z,72.21
2018-11-27T03:30:36.845Z,72.32
2018-11-27T03:33:06.270Z,70.45
2018-11-27T03:35:35.441Z,69.96
2018-11-27T03:38:04.427Z,68.43
2018-11-27T03:40:33.672Z,68.42
2018-11-27T03:43:02.642Z,68.84
2018-11-27T03:45:31.652Z,68.81
2018-11-27T03:48:00.854Z,67.01
2018-11-27T03:50:31.648Z,67.65
2018-11-27T03:53:00.884Z,67.91
2018-11-27T03:55:29.846Z,70.92
2018-11-27T03:57:58.849Z,69.02
2018-11-27T04:00:29.065Z,68.89
2018-11-27T04:03:07.944Z,69.65
2018-11-27T04:05:37.159Z,68.30
2018-11-27T04:08:08.880Z,72.29
2018-11-27T04:10:39.133Z,70.63
2018-11-27T04:13:08.458Z,71.71
2018-11-27T04:15:37.660Z,73.24
2018-11-27T04:18:06.875Z,73.40
2018-11-27T04:20:35.907Z,74.13
2018-11-27T04:23:05.009Z,73.41
2018-11-27T04:25:33.998Z,73.58
2018-11-27T04:28:03.232Z,73.72
2018-11-27T04:30:32.301Z,72.46
2018-11-27T04:33:01.330Z,74.19
2018-11-27T04:35:30.413Z,70.30
2018-11-27T04:37:59.678Z,73.30
2018-11-27T04:40:28.662Z,73.69
2018-11-27T04:42:57.846Z,71.34
2018-11-27T04:45:27.463Z,69.98
2018-11-27T04:47:56.473Z,70.38
2018-11-27T04:50:25.803Z,71.10
2018-11-27T04:52:54.804Z,71.10
2018-11-27T04:55:23.822Z,73.40
2018-11-27T04:57:53.630Z,74.73
2018-11-27T05:00:24.901Z,73.74
2018-11-27T05:02:53.949Z,75.14
2018-11-27T05:05:23.126Z,74.38
2018-11-27T05:07:52.106Z,74.85
2018-11-27T05:10:22.285Z,75.02
2018-11-27T05:12:51.283Z,75.16
2018-11-27T05:15:22.987Z,76.59
2018-11-27T05:17:58.475Z,74.87
2018-11-27T05:20:27.458Z,74.40
2018-11-27T05:22:56.528Z,73.21
2018-11-27T05:25:25.513Z,71.33
2018-11-27T05:27:56.247Z,72.07
2018-11-27T05:30:28.377Z,71.18
2018-11-27T05:32:57.016Z,72.91
2018-11-27T05:35:29.451Z,74.21
2018-11-27T05:38:00.144Z,75.23
2018-11-27T05:40:29.184Z,73.00
2018-11-27T05:43:03.236Z,74.88
2018-11-27T05:45:33.460Z,74.00
2018-11-27T05:48:02.471Z,72.16
2018-11-27T05:50:31.507Z,72.60
2018-11-27T05:53:00.560Z,75.21
2018-11-27T05:55:29.732Z,74.54
2018-11-27T05:57:58.735Z,74.80
2018-11-27T06:00:30.063Z,75.35
2018-11-27T06:03:00.538Z,74.40
2018-11-27T06:05:29.592Z,73.95
2018-11-27T06:07:58.667Z,74.27
2018-11-27T06:10:27.823Z,75.72
2018-11-27T06:12:56.839Z,74.23
2018-11-27T06:15:26.331Z,75.99
2018-11-27T06:17:57.206Z,75.63
2018-11-27T06:20:26.220Z,74.58
2018-11-27T06:22:55.633Z,74.36
2018-11-27T06:25:26.247Z,72.37
2018-11-27T06:27:57.004Z,69.53
2018-11-27T06:30:27.586Z,72.18
2018-11-27T06:32:56.600Z,68.72
2018-11-27T06:35:42.611Z,69.18
2018-11-27T06:38:12.145Z,67.52
2018-11-27T06:40:42.601Z,67.04
2018-11-27T06:43:12.712Z,67.00
2018-11-27T06:45:43.207Z,68.08
2018-11-27T06:48:12.269Z,69.66
2018-11-27T06:50:41.357Z,69.46
2018-11-27T06:53:10.426Z,67.92
2018-11-27T06:55:39.726Z,68.48
2018-11-27T06:58:09.136Z,67.15
2018-11-27T07:00:38.111Z,67.31
2018-11-27T07:03:10.754Z,66.88
2018-11-27T07:05:40.029Z,66.38
2018-11-27T07:08:09.833Z,65.84
2018-11-27T07:10:42.026Z,65.43
2018-11-27T07:13:16.177Z,64.88
2018-11-27T07:15:45.223Z,65.04
2018-11-27T07:18:14.213Z,65.67
2018-11-27T07:20:43.244Z,65.08
2018-11-27T07:23:12.275Z,64.09
2018-11-27T07:25:41.393Z,64.70
2018-11-27T07:28:10.377Z,66.04
2018-11-27T07:30:41.101Z,66.41
2018-11-27T07:33:10.471Z,64.85
2018-11-27T07:35:39.454Z,66.71
2018-11-27T07:38:08.519Z,67.09
2018-11-27T07:40:37.552Z,65.96
2018-11-27T07:43:10.939Z,66.06
2018-11-27T07:45:40.472Z,66.82
2018-11-27T07:48:10.540Z,65.18
2018-11-27T07:50:39.852Z,64.08
2018-11-27T07:53:08.922Z,63.47
2018-11-27T07:55:38.015Z,62.89
2018-11-27T07:58:07.572Z,63.25
2018-11-27T08:00:36.696Z,62.33
2018-11-27T08:03:06.833Z,61.76
2018-11-27T08:05:38.561Z,61.36
2018-11-27T08:08:10.873Z,61.91
2018-11-27T08:10:40.083Z,61.63
2018-11-27T08:13:10.256Z,61.69
2018-11-27T08:15:39.249Z,61.60
2018-11-27T08:18:08.957Z,61.33
2018-11-27T08:20:37.979Z,60.99
2018-11-27T08:23:09.529Z,61.00
2018-11-27T08:25:38.513Z,59.39
2018-11-27T08:28:08.874Z,60.12
2018-11-27T08:30:38.343Z,59.42
2018-11-27T08:33:07.764Z,59.30
2018-11-27T08:35:36.985Z,58.46
2018-11-27T08:38:06.256Z,59.09
2018-11-27T08:40:35.281Z,57.60
2018-11-27T08:43:04.443Z,59.47
2018-11-27T08:45:33.447Z,58.80
2018-11-27T08:48:02.452Z,58.29
2018-11-27T08:50:31.460Z,58.48
2018-11-27T08:53:03.074Z,58.07
2018-11-27T08:55:34.780Z,58.82
2018-11-27T08:58:05.082Z,58.44
2018-11-27T09:00:34.120Z,58.04
2018-11-27T09:03:03.367Z,58.26
2018-11-27T09:05:32.470Z,57.15
2018-11-27T09:08:01.474Z,57.03
2018-11-27T09:10:31.457Z,56.55
2018-11-27T09:13:00.972Z,57.01
2018-11-27T09:15:29.853Z,56.49
2018-11-27T09:18:11.638Z,57.13
2018-11-27T09:20:40.629Z,55.93
2018-11-27T09:23:09.801Z,56.42
2018-11-27T09:25:38.786Z,55.81
2018-11-27T09:28:07.811Z,55.98
2018-11-27T09:30:37.048Z,55.66
2018-11-27T09:33:06.981Z,56.42
2018-11-27T09:35:36.420Z,56.65
2018-11-27T09:38:05.787Z,55.58
2018-11-27T09:40:34.778Z,55.34
2018-11-27T09:43:03.836Z,54.50
2018-11-27T09:45:32.848Z,54.73
2018-11-27T09:48:01.852Z,54.85
2018-11-27T09:50:30.865Z,55.07
2018-11-27T09:52:59.884Z,53.96
2018-11-27T09:55:29.048Z,54.64
2018-11-27T09:57:59.394Z,54.81
2018-11-27T10:00:29.049Z,53.59
2018-11-27T10:03:00.996Z,54.47
2018-11-27T10:05:29.993Z,53.48
2018-11-27T10:07:59.052Z,53.69
2018-11-27T10:10:28.082Z,54.20
2018-11-27T10:12:57.280Z,54.07
2018-11-27T10:15:27.869Z,55.79
2018-11-27T10:18:00.285Z,57.36
2018-11-27T10:20:34.181Z,58.51
2018-11-27T10:23:03.244Z,56.20
2018-11-27T10:25:32.224Z,56.70
2018-11-27T10:28:01.259Z,55.74
2018-11-27T10:30:30.269Z,58.67
2018-11-27T10:32:59.663Z,58.94
2018-11-27T10:35:30.656Z,58.64
2018-11-27T10:37:59.694Z,54.29
2018-11-27T10:40:28.889Z,54.30
2018-11-27T10:42:57.906Z,54.51
2018-11-27T10:45:27.712Z,55.56
2018-11-27T10:47:57.178Z,55.36
2018-11-27T10:50:26.199Z,54.20
2018-11-27T10:52:56.597Z,54.49
2018-11-27T10:55:26.148Z,53.91
2018-11-27T10:57:55.177Z,55.29
2018-11-27T11:00:31.576Z,54.54
2018-11-27T11:03:06.984Z,57.68
2018-11-27T11:05:38.121Z,62.42
2018-11-27T11:08:07.160Z,62.85
2018-11-27T11:10:36.536Z,62.67
2018-11-27T11:13:05.658Z,62.22
2018-11-27T11:15:34.715Z,62.74
2018-11-27T11:18:04.201Z,61.64
2018-11-27T11:20:33.218Z,62.18
2018-11-27T11:23:02.532Z,61.47
2018-11-27T11:25:31.759Z,63.24
2018-11-27T11:28:00.911Z,63.70
2018-11-27T11:30:29.884Z,61.77
2018-11-27T11:32:58.853Z,62.00
2018-11-27T11:35:28.097Z,62.25
2018-11-27T11:37:57.129Z,61.16
2018-11-27T11:40:26.408Z,61.92
2018-11-27T11:42:57.103Z,61.86
2018-11-27T11:45:26.316Z,62.98
2018-11-27T11:47:55.411Z,62.74
2018-11-27T11:50:29.712Z,63.39
2018-11-27T11:53:10.975Z,63.39
2018-11-27T11:55:40.009Z,63.07
2018-11-27T11:58:09.453Z,62.46
2018-11-27T12:00:43.007Z,63.49
2018-11-27T12:03:12.113Z,64.64
2018-11-27T12:05:41.129Z,63.46
2018-11-27T12:08:10.373Z,62.15
2018-11-27T12:10:39.591Z,60.03
2018-11-27T12:13:10.920Z,61.57
2018-11-27T12:15:39.980Z,62.13
2018-11-27T12:18:10.487Z,62.83
2018-11-27T12:20:40.843Z,62.05
2018-11-27T12:23:11.667Z,61.87
2018-11-27T12:25:41.184Z,60.13
2018-11-27T12:28:14.724Z,58.58
2018-11-27T12:30:40.332Z,58.36
2018-11-27T12:33:09.559Z,57.66
2018-11-27T12:35:38.613Z,57.84
2018-11-27T12:38:08.191Z,57.73
2018-11-27T12:40:37.685Z,58.43
2018-11-27T12:43:07.004Z,58.56
2018-11-27T12:45:36.230Z,57.72
2018-11-27T12:48:05.402Z,57.23
2018-11-27T12:50:43.988Z,59.45
2018-11-27T12:53:16.983Z,59.44
2018-11-27T12:55:46.912Z,60.64
2018-11-27T12:58:15.947Z,60.97
2018-11-27T13:00:45.148Z,62.97
2018-11-27T13:03:14.599Z,62.59
2018-11-27T13:05:45.404Z,63.77
2018-11-27T13:08:18.197Z,61.70
2018-11-27T13:10:47.258Z,61.88
2018-11-27T13:13:16.547Z,60.67
2018-11-27T13:15:46.078Z,60.43
2018-11-27T13:18:15.091Z,61.15
2018-11-27T13:20:44.198Z,59.93
2018-11-27T13:23:13.241Z,59.48
2018-11-27T13:25:42.234Z,59.03
2018-11-27T13:28:13.040Z,59.88
2018-11-27T13:30:49.964Z,59.88
2018-11-27T13:33:24.117Z,59.05
2018-11-27T13:35:53.161Z,59.82
2018-11-27T13:38:22.208Z,59.13
2018-11-27T13:40:51.482Z,59.22
2018-11-27T13:43:28.641Z,59.36
2018-11-27T13:45:59.789Z,58.47
2018-11-27T13:48:28.839Z,55.46
2018-11-27T13:50:58.442Z,56.06
2018-11-27T13:53:27.421Z,56.76
2018-11-27T13:55:56.437Z,56.37
2018-11-27T13:58:25.666Z,56.31
2018-11-27T14:00:54.681Z,56.04
2018-11-27T14:03:24.066Z,57.23
2018-11-27T14:05:53.373Z,56.69
2018-11-27T14:08:22.396Z,55.42
2018-11-27T14:10:51.998Z,54.60
2018-11-27T14:13:21.391Z,55.79
2018-11-27T14:15:56.305Z,54.26
2018-11-27T14:18:25.354Z,54.92
2018-11-27T14:24:26.920Z,56.48
2018-11-27T14:26:57.159Z,55.84
2018-11-27T14:29:26.180Z,54.84
2018-11-27T14:31:55.164Z,56.50
2018-11-27T14:34:24.168Z,55.16
2018-11-27T14:36:53.173Z,55.87
2018-11-27T14:39:22.199Z,55.89
2018-11-27T14:41:51.359Z,55.54
2018-11-27T14:44:20.399Z,55.46
2018-11-27T14:46:49.404Z,56.41
2018-11-27T14:49:18.375Z,57.54
2018-11-27T14:51:47.500Z,58.46
2018-11-27T14:54:16.544Z,59.62
2018-11-27T14:56:45.718Z,59.62
2018-11-27T14:59:16.180Z,60.94
2018-11-27T15:01:45.388Z,61.44
2018-11-27T15:04:14.777Z,59.36
2018-11-27T15:06:43.886Z,58.59
2018-11-27T15:09:12.955Z,58.29
2018-11-27T15:11:42.040Z,60.68
2018-11-27T15:14:11.698Z,60.29
2018-11-27T15:38:27.320Z,62.37
2018-11-27T15:40:56.306Z,62.65
2018-11-27T15:43:25.416Z,60.10
2018-11-27T15:45:54.491Z,60.05
2018-11-27T15:48:23.513Z,62.51
2018-11-27T15:50:52.576Z,60.97
2018-11-27T15:53:21.578Z,61.12
2018-11-27T15:55:50.598Z,62.72
2018-11-27T15:58:20.421Z,61.39
2018-11-27T16:00:49.553Z,59.96
2018-11-27T16:03:18.565Z,59.72
2018-11-27T16:05:47.629Z,61.02
2018-11-27T16:08:16.648Z,61.05
2018-11-27T16:10:45.661Z,60.06
2018-11-27T16:13:14.691Z,60.19
2018-11-27T16:15:43.713Z,61.68
2018-11-27T16:18:12.849Z,61.02
2018-11-27T16:20:42.024Z,61.77
2018-11-27T16:23:11.113Z,60.56
2018-11-27T16:25:40.440Z,60.58
2018-11-27T16:28:09.542Z,61.07
2018-11-27T16:30:38.538Z,60.33
2018-11-27T16:33:07.977Z,60.78
2018-11-27T16:35:37.290Z,61.22
2018-11-27T16:38:07.212Z,61.50
2018-11-27T16:40:38.088Z,61.07
2018-11-27T16:43:07.871Z,61.86
2018-11-27T16:45:36.974Z,61.34
2018-11-27T16:48:06.990Z,61.88
2018-11-27T16:50:36.251Z,61.70
2018-11-27T16:53:05.659Z,61.54
2018-11-27T16:55:34.661Z,61.27
2018-11-27T16:58:03.783Z,61.43
2018-11-27T17:00:33.929Z,62.33
2018-11-27T17:03:07.910Z,63.14
2018-11-27T17:05:43.792Z,63.41
2018-11-27T17:08:12.822Z,62.26
2018-11-27T17:10:44.729Z,65.45
2018-11-27T17:13:16.217Z,64.39
2018-11-27T17:15:45.442Z,63.73
2018-11-27T17:18:14.492Z,62.53
2018-11-27T17:20:45.445Z,67.23
2018-11-27T17:23:20.125Z,66.47
2018-11-27T17:25:49.161Z,63.92
2018-11-27T17:28:21.808Z,62.23
2018-11-27T17:31:02.075Z,63.21
2018-11-27T17:33:36.000Z,63.18
2018-11-27T17:36:09.382Z,64.00
2018-11-27T17:38:38.606Z,66.46
2018-11-27T17:41:08.777Z,64.50
2018-11-27T17:43:38.731Z,64.24
2018-11-27T17:46:08.296Z,65.48
2018-11-27T17:48:37.292Z,63.00
2018-11-27T17:51:07.369Z,63.67
2018-11-27T17:53:37.249Z,63.62
2018-11-27T17:56:06.357Z,65.21
2018-11-27T17:58:35.484Z,65.02
2018-11-27T18:01:04.520Z,64.17
2018-11-27T18:03:33.720Z,66.02
2018-11-27T18:06:03.039Z,63.14
2018-11-27T18:08:32.359Z,62.17
2018-11-27T18:11:01.382Z,63.08
2018-11-27T18:13:30.644Z,64.18
2018-11-27T18:15:59.680Z,64.16
2018-11-27T18:18:28.690Z,66.94
2018-11-27T18:20:57.721Z,65.99
2018-11-27T18:23:26.889Z,68.56
2018-11-27T18:25:56.349Z,67.94
2018-11-27T18:28:25.565Z,67.65
2018-11-27T18:30:54.950Z,64.11
2018-11-27T18:33:24.604Z,64.87
2018-11-27T18:35:53.732Z,63.09
2018-11-27T18:38:22.850Z,62.65
2018-11-27T18:40:52.103Z,65.88
2018-11-27T18:43:21.127Z,67.27
2018-11-27T18:45:50.147Z,63.71
2018-11-27T18:48:19.265Z,62.31
2018-11-27T18:50:48.602Z,64.73
2018-11-27T18:53:18.153Z,65.61
2018-11-27T18:55:47.147Z,63.84
2018-11-27T18:58:16.266Z,65.56
2018-11-27T19:00:45.310Z,64.75
2018-11-27T19:03:14.390Z,63.00
2018-11-27T19:05:43.442Z,63.64
2018-11-27T19:08:12.428Z,64.18
2018-11-27T19:10:41.708Z,63.48
2018-11-27T19:13:10.710Z,63.29
2018-11-27T19:15:43.148Z,64.30
2018-11-27T19:18:18.177Z,64.13
2018-11-27T19:20:47.267Z,64.24
2018-11-27T19:23:17.534Z,64.67
2018-11-27T19:25:46.636Z,64.08
2018-11-27T19:28:15.813Z,63.02
2018-11-27T19:30:45.408Z,62.62
2018-11-27T19:33:14.479Z,62.25
2018-11-27T19:35:43.883Z,64.45
2018-11-27T19:38:16.462Z,63.67
2018-11-27T19:40:45.524Z,60.53
2018-11-27T19:43:14.789Z,61.75
2018-11-27T19:45:43.819Z,62.47
2018-11-27T19:48:14.256Z,62.04
2018-11-27T19:50:43.272Z,61.85
2018-11-27T19:53:14.348Z,62.97
2018-11-27T19:55:43.770Z,61.26
2018-11-27T19:58:12.995Z,61.03
2018-11-27T20:00:42.433Z,61.12
2018-11-27T20:03:12.613Z,61.07
2018-11-27T20:05:42.382Z,60.81
2018-11-27T20:08:15.080Z,60.19
2018-11-27T20:10:44.421Z,62.43
2018-11-27T20:13:15.348Z,61.56
2018-11-27T20:15:45.460Z,61.54
2018-11-27T20:18:15.307Z,61.73
2018-11-27T20:20:44.588Z,61.24
2018-11-27T20:23:14.674Z,60.23
2018-11-27T20:25:44.437Z,59.98
2018-11-27T20:28:14.267Z,59.82
2018-11-27T20:30:43.645Z,59.62
2018-11-27T20:33:14.016Z,60.50
2018-11-27T20:35:45.633Z,59.94
2018-11-27T20:38:14.917Z,61.62
2018-11-27T20:40:45.269Z,60.17
2018-11-27T20:43:14.894Z,60.58
2018-11-27T20:45:45.758Z,61.05
2018-11-27T20:48:19.751Z,60.99
2018-11-27T20:50:51.448Z,59.75
2018-11-27T20:53:20.861Z,60.16
2018-11-27T20:55:51.710Z,60.06
2018-11-27T20:58:22.396Z,60.61
2018-11-27T21:00:53.193Z,60.45
2018-11-27T21:03:22.293Z,61.47
2018-11-27T21:05:51.597Z,60.45
2018-11-27T21:08:21.721Z,59.29
2018-11-27T21:10:50.967Z,58.89
2018-11-27T21:13:20.054Z,59.61
2018-11-27T21:15:49.301Z,58.54
2018-11-27T21:18:19.253Z,59.19
2018-11-27T21:20:48.259Z,59.19
2018-11-27T21:23:17.740Z,59.56
2018-11-27T21:25:48.058Z,59.92
2018-11-27T21:28:19.818Z,59.64
2018-11-27T21:30:51.900Z,59.39
2018-11-27T21:33:21.870Z,59.45
2018-11-27T21:35:50.966Z,60.42
2018-11-27T21:38:22.529Z,60.32
2018-11-27T21:40:51.570Z,60.40
2018-11-27T21:43:20.576Z,59.43
2018-11-27T21:45:49.665Z,58.64
2018-11-27T21:48:19.256Z,59.53
2018-11-27T21:50:49.362Z,58.43
2018-11-27T21:53:20.245Z,58.42
2018-11-27T21:55:50.669Z,58.03
2018-11-27T21:58:19.686Z,58.40
2018-11-27T22:00:49.507Z,58.69
2018-11-27T22:03:18.733Z,58.20
2018-11-27T22:05:48.205Z,58.20
2018-11-27T22:08:18.250Z,58.51
2018-11-27T22:10:48.534Z,57.42
2018-11-27T22:13:19.545Z,57.81
2018-11-27T22:15:49.355Z,57.86
2018-11-27T22:18:20.069Z,58.06
2018-11-27T22:20:53.968Z,58.14
2018-11-27T22:23:23.909Z,57.81
2018-11-27T22:25:53.778Z,56.96
2018-11-27T22:28:23.814Z,57.86
2018-11-27T22:30:52.927Z,56.92
2018-11-27T22:33:22.731Z,57.89
2018-11-27T22:35:51.805Z,58.26
2018-11-27T22:38:21.635Z,57.30
2018-11-27T22:40:51.443Z,56.92
2018-11-27T22:43:20.655Z,57.06
2018-11-27T22:45:50.828Z,56.86
2018-11-27T22:48:20.243Z,56.70
2018-11-27T22:50:50.168Z,56.82
2018-11-27T22:53:20.774Z,56.34
2018-11-27T22:55:49.799Z,55.58
2018-11-27T22:58:18.852Z,54.96
2018-11-27T23:00:50.238Z,54.25
2018-11-27T23:03:20.312Z,54.02
2018-11-27T23:05:50.173Z,53.03
2018-11-27T23:08:20.471Z,52.43
2018-11-27T23:10:50.475Z,52.50
2018-11-27T23:13:19.541Z,51.96
2018-11-27T23:15:48.628Z,51.27
2018-11-27T23:18:17.644Z,51.84
2018-11-27T23:20:46.652Z,52.14
2018-11-27T23:23:15.650Z,53.78
2018-11-27T23:25:44.713Z,52.16
2018-11-27T23:28:13.778Z,52.99
2018-11-27T23:30:43.322Z,51.01
2018-11-27T23:33:12.305Z,51.61
2018-11-27T23:35:41.385Z,53.80
2018-11-27T23:38:10.395Z,51.62
2018-11-27T23:40:40.084Z,52.40
2018-11-27T23:43:09.289Z,52.22
2018-11-27T23:45:38.501Z,51.54
2018-11-27T23:48:07.892Z,51.53
2018-11-27T23:50:36.999Z,51.18
2018-11-27T23:53:06.447Z,52.32
2018-11-27T23:55:35.522Z,52.05
2018-11-27T23:58:04.786Z,51.69
